Portada
METAR-TAF:

METAR-TAF

Aeropuertos :

Aeropuerto de Lublin

Lublin, Polonia

latitud: 51-13-55N, longitud: 22-41-25E, altitud: 203 m

Observación

El informe se hizo hace 36 minutos, a las 21:00 UTC
Viento 13 kt del oeste-suroeste
Temperatura 9°C
Humedad 87%
Presión 1004 hPa
Visibilidad: 6000 m
Escasas nubes a una altura de 1500 ft
Cielo nuboso a una altura de 3000 ft
lluvia ligera

METAR: EPLB 052100Z 24013KT 6000 -RA FEW015 BKN030 09/07 Q1004

Hora: 23:36 (21:36 UTC)

Pronóstico

El informe se hizo hace 1 hora y 6 minutos, a las 20:30 UTC
Pronóstico válido del 05 a las 21 UTC al 06 a las 06 UTC
Viento 10 kt del suroeste
Visibilidad 10 km o más
Cielo nuboso a una altura de 4000 ft
Temporalmente
del 05 a las 21 UTC al 06 a las 02 UTC
Nubes dispersas a una altura de 1200 ft
Cielo nuboso a una altura de 3000 ft, Cumulonimbus.
chaparrones de lluvia

TAF: EPLB 052030Z 0521/0606 23010KT 9999 BKN040 TEMPO 0521/0602 -SHRA SCT012 BKN030CB

Observaciones y pronósticos meteorológicos de más de 4000 aeropuertos (mensajes METAR y TAF).

Los puntos amarillos y rojos representan las estaciones disponibles.

Ponga el ratón en el punto deseado para ver el nombre de la estación.

Haga clic para ver las observaciones y los pronósticos meteorológicos.

Para cambiar el mapa : haga clic en los botones verdes con una cruz de color negro para hacer un zoom, en el botón verde con un guión para alejar o en las flechas verdes para mapas adyacentes.


METAR-TAF: